createdAt,value
2019-03-27T00:00:33.649Z,18.30
2019-03-27T00:03:39.359Z,15.17
2019-03-27T00:06:45.077Z,14.73
2019-03-27T00:09:50.749Z,13.40
2019-03-27T00:12:56.483Z,15.73
2019-03-27T00:16:02.206Z,17.77
2019-03-27T00:19:07.860Z,15.30
2019-03-27T00:22:13.543Z,17.30
2019-03-27T00:25:19.208Z,14.03
2019-03-27T00:28:24.894Z,17.87
2019-03-27T00:31:30.690Z,19.10
2019-03-27T00:34:36.400Z,18.60
2019-03-27T00:37:42.147Z,18.50
2019-03-27T00:40:47.823Z,21.10
2019-03-27T00:43:53.493Z,17.73
2019-03-27T00:46:59.202Z,20.93
2019-03-27T00:50:05.009Z,19.07
2019-03-27T00:53:10.716Z,16.63
2019-03-27T00:56:16.355Z,21.80
2019-03-27T00:59:22.003Z,21.10
2019-03-27T01:02:27.968Z,18.57
2019-03-27T01:05:33.893Z,17.93
2019-03-27T01:08:40.082Z,19.27
2019-03-27T01:11:45.760Z,24.83
2019-03-27T01:14:51.398Z,17.60
2019-03-27T01:17:57.092Z,17.57
2019-03-27T01:21:02.763Z,18.27
2019-03-27T01:24:08.505Z,18.77
2019-03-27T01:27:14.219Z,29.30
2019-03-27T01:30:19.886Z,20.27
2019-03-27T01:33:25.578Z,18.83
2019-03-27T01:36:31.230Z,19.47
2019-03-27T01:39:36.928Z,19.23
2019-03-27T01:42:42.615Z,16.33
2019-03-27T01:45:53.351Z,21.50
2019-03-27T01:48:55.662Z,17.53
2019-03-27T01:52:01.407Z,17.70
2019-03-27T01:55:07.385Z,22.50
2019-03-27T01:58:13.031Z,24.63
2019-03-27T02:01:18.699Z,20.57
2019-03-27T02:04:24.340Z,18.80
2019-03-27T02:07:30.048Z,18.73
2019-03-27T02:10:35.677Z,20.07
2019-03-27T02:13:41.345Z,18.87
2019-03-27T02:16:47.058Z,17.47
2019-03-27T02:19:53.830Z,15.60
2019-03-27T02:22:59.510Z,19.13
2019-03-27T02:26:05.217Z,18.20
2019-03-27T02:29:10.971Z,20.60
2019-03-27T02:32:20.479Z,17.43
2019-03-27T02:35:24.012Z,23.87
2019-03-27T02:38:29.702Z,16.97
2019-03-27T02:41:35.384Z,23.87
2019-03-27T02:44:41.058Z,18.10
2019-03-27T02:47:46.776Z,21.00
2019-03-27T02:50:52.398Z,18.17
2019-03-27T02:53:58.173Z,20.03
2019-03-27T02:57:03.853Z,20.53
2019-03-27T03:00:10.565Z,22.13
2019-03-27T03:03:16.308Z,25.00
2019-03-27T03:06:21.941Z,20.70
2019-03-27T03:09:27.684Z,19.67
2019-03-27T03:12:33.394Z,18.73
2019-03-27T03:15:39.112Z,19.13
2019-03-27T03:18:44.800Z,18.83
2019-03-27T03:21:50.537Z,21.60
2019-03-27T03:24:56.163Z,21.90
2019-03-27T03:28:01.845Z,19.23
2019-03-27T03:31:07.584Z,19.43
2019-03-27T03:34:14.353Z,25.43
2019-03-27T03:37:20.052Z,23.93
2019-03-27T03:40:25.756Z,21.97
2019-03-27T03:43:31.496Z,19.73
2019-03-27T03:46:37.146Z,22.37
2019-03-27T03:49:42.838Z,17.60
2019-03-27T03:52:48.719Z,18.90
2019-03-27T03:55:54.891Z,21.10
2019-03-27T03:59:01.148Z,21.57
2019-03-27T04:02:06.961Z,21.63
2019-03-27T04:05:15.180Z,18.67
2019-03-27T04:08:20.811Z,17.93
2019-03-27T04:11:26.549Z,21.47
2019-03-27T04:14:32.191Z,24.60
2019-03-27T04:17:37.944Z,25.13
2019-03-27T04:20:43.638Z,16.23
2019-03-27T04:23:49.396Z,19.33
2019-03-27T04:26:55.105Z,19.73
2019-03-27T04:30:00.831Z,18.60
2019-03-27T04:33:06.500Z,19.20
2019-03-27T04:36:12.185Z,21.90
2019-03-27T04:39:17.836Z,24.17
2019-03-27T04:42:23.566Z,23.10
2019-03-27T04:45:29.266Z,24.00
2019-03-27T04:48:35.042Z,20.53
2019-03-27T04:51:40.671Z,19.97
2019-03-27T04:54:46.339Z,25.23
2019-03-27T04:57:52.108Z,23.17
2019-03-27T05:00:57.799Z,27.23
2019-03-27T05:04:06.050Z,24.53
2019-03-27T05:07:13.732Z,24.20
2019-03-27T05:10:20.152Z,21.60
2019-03-27T05:13:25.860Z,23.07
2019-03-27T05:16:31.573Z,21.87
2019-03-27T05:19:37.251Z,22.47
2019-03-27T05:22:42.937Z,21.60
2019-03-27T05:25:48.589Z,18.23
2019-03-27T05:28:54.668Z,20.90
2019-03-27T05:32:00.314Z,23.17
2019-03-27T05:35:06.487Z,17.47
2019-03-27T05:38:12.139Z,18.83
2019-03-27T05:41:17.855Z,33.23
2019-03-27T05:44:23.509Z,30.83
2019-03-27T05:47:29.151Z,18.47
2019-03-27T05:50:34.896Z,19.00
2019-03-27T05:53:40.541Z,22.07
2019-03-27T05:56:46.257Z,21.37
2019-03-27T05:59:51.908Z,17.93
2019-03-27T06:02:57.665Z,18.53
2019-03-27T06:06:03.309Z,24.90
2019-03-27T06:09:08.993Z,20.10
2019-03-27T06:12:14.665Z,24.00
2019-03-27T06:15:20.362Z,23.83
2019-03-27T06:18:26.016Z,39.27
2019-03-27T06:21:31.667Z,35.07
2019-03-27T06:24:37.348Z,21.97
2019-03-27T06:27:43.052Z,23.57
2019-03-27T06:30:48.861Z,29.70
2019-03-27T06:33:54.484Z,23.20
2019-03-27T06:37:00.180Z,19.10
2019-03-27T06:40:06.233Z,21.87
2019-03-27T06:43:11.898Z,25.93
2019-03-27T06:46:17.578Z,25.03
2019-03-27T06:49:23.215Z,23.40
2019-03-27T06:52:28.965Z,17.70
2019-03-27T06:55:34.708Z,21.63
2019-03-27T06:58:53.583Z,15.77
2019-03-27T07:01:48.920Z,19.83
2019-03-27T07:04:54.617Z,15.83
2019-03-27T07:08:00.653Z,19.17
2019-03-27T07:11:06.300Z,17.33
2019-03-27T07:14:12.067Z,15.27
2019-03-27T07:17:17.717Z,13.67
2019-03-27T07:20:23.396Z,17.43
2019-03-27T07:23:29.067Z,18.53
2019-03-27T07:26:34.781Z,18.07
2019-03-27T07:29:40.480Z,20.73
2019-03-27T07:32:46.243Z,16.17
2019-03-27T07:35:51.891Z,20.23
2019-03-27T07:39:10.482Z,15.43
2019-03-27T07:42:06.140Z,17.13
2019-03-27T07:45:12.339Z,14.33
2019-03-27T07:48:18.005Z,15.77
2019-03-27T07:51:23.752Z,17.97
2019-03-27T07:54:29.454Z,15.67
2019-03-27T07:57:35.209Z,14.50
2019-03-27T08:00:40.814Z,18.90
2019-03-27T08:03:46.452Z,9.07
2019-03-27T08:06:52.133Z,10.17
2019-03-27T08:09:57.835Z,12.47
2019-03-27T08:13:03.535Z,7.97
2019-03-27T08:16:09.296Z,10.90
2019-03-27T08:19:14.946Z,8.73
2019-03-27T08:22:20.630Z,8.60
2019-03-27T08:25:26.301Z,9.73
2019-03-27T08:28:32.167Z,9.87
2019-03-27T08:31:37.808Z,9.90
2019-03-27T08:34:43.530Z,8.23
2019-03-27T08:37:49.252Z,8.63
2019-03-27T08:40:54.927Z,9.40
2019-03-27T08:44:00.759Z,12.00
2019-03-27T08:47:06.576Z,7.93
2019-03-27T08:50:12.806Z,6.50
2019-03-27T08:53:18.550Z,10.13
2019-03-27T08:56:24.174Z,7.33
2019-03-27T08:59:29.835Z,10.83
2019-03-27T09:02:35.580Z,10.00
2019-03-27T09:05:41.303Z,7.37
2019-03-27T09:08:47.006Z,7.80
2019-03-27T09:11:52.736Z,7.27
2019-03-27T09:14:58.471Z,5.87
2019-03-27T09:18:04.300Z,6.10
2019-03-27T09:21:10.033Z,7.20
2019-03-27T09:24:15.770Z,5.83
2019-03-27T09:27:21.412Z,6.23
2019-03-27T09:30:28.758Z,5.53
2019-03-27T09:33:34.396Z,4.53
2019-03-27T09:36:40.073Z,7.00
2019-03-27T09:39:45.794Z,5.67
2019-03-27T09:42:51.583Z,5.27
2019-03-27T09:45:57.292Z,8.27
2019-03-27T09:49:04.010Z,5.97
2019-03-27T09:52:09.774Z,5.27
2019-03-27T09:55:15.461Z,7.30
2019-03-27T09:58:21.262Z,5.13
2019-03-27T10:01:26.998Z,4.83
2019-03-27T10:04:32.676Z,2.77
2019-03-27T10:07:38.380Z,3.53
2019-03-27T10:10:44.082Z,6.53
2019-03-27T10:13:49.708Z,6.77
2019-03-27T10:16:55.395Z,4.23
2019-03-27T10:20:03.818Z,9.70
2019-03-27T10:23:08.498Z,4.03
2019-03-27T10:26:14.131Z,5.47
2019-03-27T10:29:19.878Z,3.30
2019-03-27T10:32:25.530Z,5.60
2019-03-27T10:35:31.252Z,4.87
2019-03-27T10:38:36.866Z,3.43
2019-03-27T10:41:42.515Z,3.60
2019-03-27T10:44:48.251Z,2.90
2019-03-27T10:47:53.907Z,2.47
2019-03-27T10:50:59.603Z,3.83
2019-03-27T10:54:05.562Z,2.33
2019-03-27T10:57:11.209Z,3.70
2019-03-27T11:00:17.084Z,1.83
2019-03-27T11:03:23.620Z,1.90
2019-03-27T11:06:29.327Z,2.23
2019-03-27T11:09:35.004Z,2.60
2019-03-27T11:12:40.715Z,3.80
2019-03-27T11:15:46.391Z,3.20
2019-03-27T11:18:52.124Z,2.73
2019-03-27T11:21:57.820Z,2.43
2019-03-27T11:25:03.512Z,3.30
2019-03-27T11:28:09.280Z,2.40
2019-03-27T11:31:15.048Z,2.97
2019-03-27T11:34:21.907Z,4.57
2019-03-27T11:37:27.557Z,3.47
2019-03-27T11:40:33.220Z,2.03
2019-03-27T11:43:38.909Z,3.70
2019-03-27T11:46:44.671Z,4.37
2019-03-27T11:49:50.405Z,3.70
2019-03-27T11:52:56.089Z,2.20
2019-03-27T11:56:03.422Z,4.40
2019-03-27T11:59:09.298Z,4.67
2019-03-27T12:02:14.992Z,2.83
2019-03-27T12:05:20.678Z,3.40
2019-03-27T12:08:26.363Z,2.97
2019-03-27T12:11:32.069Z,2.90
2019-03-27T12:14:37.795Z,2.97
2019-03-27T12:17:44.540Z,4.67
2019-03-27T12:20:58.784Z,1.77
2019-03-27T12:23:57.541Z,3.13
2019-03-27T12:27:03.332Z,3.80
2019-03-27T12:30:09.652Z,3.27
2019-03-27T12:33:15.372Z,2.47
2019-03-27T12:36:21.105Z,4.30
2019-03-27T12:39:27.349Z,3.80
2019-03-27T12:42:33.010Z,3.83
2019-03-27T12:45:38.867Z,6.20
2019-03-27T12:48:44.689Z,3.37
2019-03-27T12:51:50.511Z,3.90
2019-03-27T12:54:56.247Z,3.87
2019-03-27T12:58:01.957Z,3.23
2019-03-27T13:01:07.666Z,3.57
2019-03-27T13:04:13.376Z,3.70
2019-03-27T13:07:19.199Z,5.53
2019-03-27T13:10:25.067Z,5.37
2019-03-27T13:13:30.811Z,3.77
2019-03-27T13:16:36.810Z,4.27
2019-03-27T13:19:42.437Z,6.27
2019-03-27T13:22:48.163Z,5.93
2019-03-27T13:25:53.900Z,2.20
2019-03-27T13:28:59.601Z,4.10
2019-03-27T13:32:05.567Z,4.53
2019-03-27T13:35:11.419Z,5.83
2019-03-27T13:38:17.185Z,3.93
2019-03-27T13:41:22.920Z,4.27
2019-03-27T13:44:36.766Z,3.47
2019-03-27T13:47:36.137Z,3.43
2019-03-27T13:50:41.778Z,4.60
2019-03-27T13:53:47.495Z,4.67
2019-03-27T13:56:53.181Z,6.13
2019-03-27T13:59:58.893Z,4.47
2019-03-27T14:03:04.693Z,3.13
2019-03-27T14:06:10.441Z,5.47
2019-03-27T14:09:16.230Z,5.50
2019-03-27T14:12:21.886Z,3.37
2019-03-27T14:15:27.608Z,5.03
2019-03-27T14:18:33.338Z,8.20
2019-03-27T14:21:39.307Z,7.23
2019-03-27T14:24:45.127Z,9.67
2019-03-27T14:27:50.896Z,6.47
2019-03-27T14:30:58.569Z,8.17
2019-03-27T14:34:04.274Z,7.07
2019-03-27T14:37:09.976Z,6.43
2019-03-27T14:40:15.678Z,6.30
2019-03-27T14:43:21.447Z,8.30
2019-03-27T14:46:27.224Z,4.60
2019-03-27T14:49:32.894Z,8.47
2019-03-27T14:52:38.558Z,5.67
2019-03-27T14:55:44.267Z,6.67
2019-03-27T14:58:49.962Z,8.47
2019-03-27T15:01:55.660Z,5.83
2019-03-27T15:05:01.295Z,6.77
2019-03-27T15:08:08.405Z,8.10
2019-03-27T15:11:14.047Z,7.07
2019-03-27T15:14:20.661Z,6.67
2019-03-27T15:17:26.276Z,5.50
2019-03-27T15:20:31.994Z,6.23
2019-03-27T15:23:37.727Z,5.90
2019-03-27T15:26:43.480Z,5.93
2019-03-27T15:29:49.204Z,6.63
2019-03-27T15:32:54.917Z,3.40
2019-03-27T15:36:07.187Z,3.87
2019-03-27T15:39:12.955Z,5.57
2019-03-27T15:42:18.925Z,4.83
2019-03-27T15:45:24.661Z,6.77
2019-03-27T15:48:30.434Z,5.83
2019-03-27T15:51:36.168Z,5.80
2019-03-27T15:54:41.856Z,7.57
2019-03-27T15:57:47.597Z,4.40
2019-03-27T16:00:53.287Z,4.83
2019-03-27T16:03:58.975Z,7.23
2019-03-27T16:07:04.694Z,4.37
2019-03-27T16:10:10.338Z,5.63
2019-03-27T16:13:16.094Z,6.67
2019-03-27T16:16:21.778Z,4.93
2019-03-27T16:19:27.468Z,4.47
2019-03-27T16:22:34.203Z,4.17
2019-03-27T16:25:39.919Z,5.20
2019-03-27T16:28:45.588Z,7.47
2019-03-27T16:31:51.413Z,5.83
2019-03-27T16:34:57.116Z,4.47
2019-03-27T16:38:02.909Z,6.10
2019-03-27T16:41:08.608Z,5.70
2019-03-27T16:44:14.443Z,6.00
2019-03-27T16:47:20.127Z,4.67
2019-03-27T16:50:25.855Z,6.93
2019-03-27T16:53:31.580Z,8.17
2019-03-27T16:56:37.285Z,3.73
2019-03-27T16:59:43.050Z,6.33
2019-03-27T17:02:48.716Z,5.33
2019-03-27T17:05:54.661Z,4.73
2019-03-27T17:09:00.532Z,5.37
2019-03-27T17:12:07.365Z,6.47
2019-03-27T17:15:13.716Z,5.70
2019-03-27T17:18:19.425Z,5.23
2019-03-27T17:21:33.082Z,6.07
2019-03-27T17:24:39.122Z,3.67
2019-03-27T17:27:44.847Z,6.40
2019-03-27T17:30:50.553Z,3.80
2019-03-27T17:33:56.180Z,4.63
2019-03-27T17:37:01.868Z,4.07
2019-03-27T17:40:07.844Z,3.20
2019-03-27T17:43:13.501Z,4.23
2019-03-27T17:46:19.263Z,5.23
2019-03-27T17:49:24.991Z,6.93
2019-03-27T17:52:30.739Z,5.23
2019-03-27T17:55:36.441Z,4.57
2019-03-27T17:58:42.099Z,3.90
2019-03-27T18:01:47.879Z,4.63
2019-03-27T18:04:53.536Z,3.60
2019-03-27T18:07:59.224Z,4.37
2019-03-27T18:11:08.020Z,7.47
2019-03-27T18:14:12.386Z,7.30
2019-03-27T18:17:18.027Z,5.70
2019-03-27T18:20:23.701Z,8.43
2019-03-27T18:23:29.372Z,6.87
2019-03-27T18:26:35.081Z,8.77
2019-03-27T18:29:40.763Z,15.00
2019-03-27T18:32:46.441Z,32.33
2019-03-27T18:35:52.289Z,15.77
2019-03-27T18:38:57.951Z,19.77
2019-03-27T18:42:03.662Z,21.37
2019-03-27T18:45:09.544Z,16.80
2019-03-27T18:48:15.292Z,11.83
2019-03-27T18:51:21.011Z,11.47
2019-03-27T18:54:26.783Z,9.40
2019-03-27T18:57:32.498Z,11.13
2019-03-27T19:00:38.236Z,10.63
2019-03-27T19:03:44.007Z,8.67
2019-03-27T19:06:49.802Z,12.00
2019-03-27T19:09:55.450Z,8.17
2019-03-27T19:13:01.167Z,6.67
2019-03-27T19:16:07.811Z,6.20
2019-03-27T19:19:13.503Z,3.47
2019-03-27T19:22:19.264Z,6.67
2019-03-27T19:25:24.989Z,7.33
2019-03-27T19:28:30.742Z,4.27
2019-03-27T19:31:36.597Z,6.73
2019-03-27T19:34:43.441Z,8.80
2019-03-27T19:37:49.195Z,20.63
2019-03-27T19:40:54.952Z,54.17
2019-03-27T19:44:00.747Z,29.23
2019-03-27T19:47:06.535Z,35.50
2019-03-27T19:50:12.530Z,31.07
2019-03-27T19:53:18.279Z,32.10
2019-03-27T19:56:23.971Z,27.73
2019-03-27T19:59:29.792Z,23.73
2019-03-27T20:02:35.471Z,21.93
2019-03-27T20:05:41.158Z,24.93
2019-03-27T20:08:46.943Z,23.50
2019-03-27T20:11:52.608Z,24.30
2019-03-27T20:15:11.034Z,16.57
2019-03-27T20:18:05.910Z,13.80
2019-03-27T20:21:11.655Z,18.13
2019-03-27T20:24:17.428Z,16.10
2019-03-27T20:27:23.235Z,12.97
2019-03-27T20:30:28.972Z,9.17
2019-03-27T20:33:38.009Z,8.17
2019-03-27T20:36:42.203Z,10.13
2019-03-27T20:39:47.924Z,8.60
2019-03-27T20:42:53.578Z,8.60
2019-03-27T20:45:59.302Z,9.27
2019-03-27T20:49:06.051Z,12.30
2019-03-27T20:52:11.749Z,13.10
2019-03-27T20:55:29.574Z,9.23
2019-03-27T20:58:24.917Z,9.17
2019-03-27T21:01:30.737Z,10.43
2019-03-27T21:04:36.413Z,10.77
2019-03-27T21:07:42.056Z,10.17
2019-03-27T21:10:47.760Z,10.97
2019-03-27T21:13:53.444Z,13.70
2019-03-27T21:16:59.178Z,16.83
2019-03-27T21:20:05.060Z,16.43
2019-03-27T21:23:10.758Z,13.57
2019-03-27T21:26:23.254Z,10.83
2019-03-27T21:29:29.319Z,9.97
2019-03-27T21:32:34.979Z,8.60
2019-03-27T21:35:40.807Z,8.13
2019-03-27T21:38:46.566Z,8.13
2019-03-27T21:41:52.354Z,19.67
2019-03-27T21:44:58.039Z,20.27
2019-03-27T21:48:03.782Z,13.23
2019-03-27T21:51:11.914Z,18.70
2019-03-27T21:54:19.294Z,13.77
2019-03-27T21:57:24.946Z,9.53
2019-03-27T22:00:38.010Z,16.10
2019-03-27T22:03:43.697Z,14.47
2019-03-27T22:06:49.501Z,9.60
2019-03-27T22:09:55.271Z,9.27
2019-03-27T22:13:00.963Z,10.27
2019-03-27T22:16:06.588Z,10.83
2019-03-27T22:19:13.306Z,7.43
2019-03-27T22:22:19.045Z,9.03
2019-03-27T22:25:35.312Z,9.77
2019-03-27T22:28:32.065Z,9.03
2019-03-27T22:31:37.850Z,8.93
2019-03-27T22:34:44.473Z,13.43
2019-03-27T22:37:50.279Z,5.63
2019-03-27T22:40:56.009Z,9.43
2019-03-27T22:44:02.801Z,11.53
2019-03-27T22:47:08.568Z,7.27
2019-03-27T22:50:14.288Z,9.97
2019-03-27T22:53:19.973Z,11.23
2019-03-27T22:56:25.729Z,10.23
2019-03-27T22:59:31.494Z,15.63
2019-03-27T23:02:37.135Z,14.67
2019-03-27T23:05:42.793Z,7.90
2019-03-27T23:08:48.469Z,12.10
2019-03-27T23:11:54.133Z,13.43
2019-03-27T23:14:59.824Z,9.07
2019-03-27T23:18:05.568Z,9.93
2019-03-27T23:21:11.301Z,9.10
2019-03-27T23:24:17.022Z,8.43
2019-03-27T23:27:22.744Z,12.53
2019-03-27T23:30:28.641Z,13.43
2019-03-27T23:33:34.299Z,14.63
2019-03-27T23:36:40.039Z,19.70
2019-03-27T23:39:45.741Z,23.40
2019-03-27T23:42:51.475Z,26.47
2019-03-27T23:45:57.225Z,24.87
2019-03-27T23:49:04.089Z,16.13
2019-03-27T23:52:09.761Z,18.87
2019-03-27T23:55:15.425Z,16.47
2019-03-27T23:58:21.079Z,18.10
